sensor_id;sensor_type;location;lat;lon;timestamp;P1;durP1;ratioP1;P2;durP2;ratioP2
15449;SDS011;7826;49.784;9.934;2023-07-13T00:01:12;3.10;;;2.80;;
15449;SDS011;7826;49.784;9.934;2023-07-13T00:03:40;4.07;;;2.43;;
15449;SDS011;7826;49.784;9.934;2023-07-13T00:06:07;3.30;;;2.70;;
15449;SDS011;7826;49.784;9.934;2023-07-13T00:08:34;3.20;;;2.67;;
15449;SDS011;7826;49.784;9.934;2023-07-13T00:11:01;2.60;;;2.40;;
15449;SDS011;7826;49.784;9.934;2023-07-13T00:13:30;3.73;;;2.53;;
15449;SDS011;7826;49.784;9.934;2023-07-13T00:15:57;4.23;;;2.90;;
15449;SDS011;7826;49.784;9.934;2023-07-13T00:18:24;3.20;;;2.83;;
15449;SDS011;7826;49.784;9.934;2023-07-13T00:20:51;2.93;;;2.67;;
15449;SDS011;7826;49.784;9.934;2023-07-13T00:23:17;3.87;;;2.60;;
15449;SDS011;7826;49.784;9.934;2023-07-13T00:25:44;3.40;;;3.07;;
15449;SDS011;7826;49.784;9.934;2023-07-13T00:28:11;3.80;;;2.63;;
15449;SDS011;7826;49.784;9.934;2023-07-13T00:30:37;5.57;;;3.00;;
15449;SDS011;7826;49.784;9.934;2023-07-13T00:33:04;3.43;;;3.03;;
15449;SDS011;7826;49.784;9.934;2023-07-13T00:35:31;4.33;;;2.87;;
15449;SDS011;7826;49.784;9.934;2023-07-13T00:37:58;3.00;;;2.40;;
15449;SDS011;7826;49.784;9.934;2023-07-13T00:40:24;3.43;;;2.70;;
15449;SDS011;7826;49.784;9.934;2023-07-13T00:42:52;2.73;;;2.53;;
15449;SDS011;7826;49.784;9.934;2023-07-13T00:47:45;2.73;;;2.50;;
15449;SDS011;7826;49.784;9.934;2023-07-13T00:50:13;3.27;;;2.50;;
15449;SDS011;7826;49.784;9.934;2023-07-13T00:52:42;4.23;;;2.97;;
15449;SDS011;7826;49.784;9.934;2023-07-13T00:55:11;3.40;;;3.10;;
15449;SDS011;7826;49.784;9.934;2023-07-13T00:57:38;3.63;;;2.60;;
15449;SDS011;7826;49.784;9.934;2023-07-13T01:00:06;4.00;;;3.07;;
15449;SDS011;7826;49.784;9.934;2023-07-13T01:02:39;3.00;;;2.70;;
15449;SDS011;7826;49.784;9.934;2023-07-13T01:05:11;5.50;;;3.20;;
15449;SDS011;7826;49.784;9.934;2023-07-13T01:07:40;3.87;;;3.13;;
15449;SDS011;7826;49.784;9.934;2023-07-13T01:10:10;4.53;;;3.00;;
15449;SDS011;7826;49.784;9.934;2023-07-13T01:12:38;4.47;;;3.30;;
15449;SDS011;7826;49.784;9.934;2023-07-13T01:15:05;10.17;;;3.40;;
15449;SDS011;7826;49.784;9.934;2023-07-13T01:17:52;3.67;;;3.00;;
15449;SDS011;7826;49.784;9.934;2023-07-13T01:20:18;4.53;;;3.20;;
15449;SDS011;7826;49.784;9.934;2023-07-13T01:22:45;3.40;;;2.80;;
15449;SDS011;7826;49.784;9.934;2023-07-13T01:25:12;2.90;;;2.70;;
15449;SDS011;7826;49.784;9.934;2023-07-13T01:27:38;5.43;;;3.03;;
15449;SDS011;7826;49.784;9.934;2023-07-13T01:30:07;3.43;;;3.10;;
15449;SDS011;7826;49.784;9.934;2023-07-13T01:32:34;4.60;;;2.90;;
15449;SDS011;7826;49.784;9.934;2023-07-13T01:35:00;4.37;;;2.90;;
15449;SDS011;7826;49.784;9.934;2023-07-13T01:37:27;6.17;;;3.20;;
15449;SDS011;7826;49.784;9.934;2023-07-13T01:40:02;4.77;;;3.10;;
15449;SDS011;7826;49.784;9.934;2023-07-13T01:42:30;4.33;;;3.07;;
15449;SDS011;7826;49.784;9.934;2023-07-13T01:44:57;3.20;;;2.80;;
15449;SDS011;7826;49.784;9.934;2023-07-13T01:47:23;5.03;;;3.27;;
15449;SDS011;7826;49.784;9.934;2023-07-13T01:49:51;3.87;;;3.43;;
15449;SDS011;7826;49.784;9.934;2023-07-13T01:52:18;5.27;;;3.10;;
15449;SDS011;7826;49.784;9.934;2023-07-13T01:54:45;3.20;;;2.90;;
15449;SDS011;7826;49.784;9.934;2023-07-13T01:57:11;3.73;;;3.10;;
15449;SDS011;7826;49.784;9.934;2023-07-13T01:59:38;4.27;;;3.10;;
15449;SDS011;7826;49.784;9.934;2023-07-13T02:02:04;3.00;;;2.80;;
15449;SDS011;7826;49.784;9.934;2023-07-13T02:04:31;4.97;;;3.17;;
15449;SDS011;7826;49.784;9.934;2023-07-13T02:06:57;2.93;;;2.73;;
15449;SDS011;7826;49.784;9.934;2023-07-13T02:09:24;3.13;;;2.83;;
15449;SDS011;7826;49.784;9.934;2023-07-13T02:11:50;4.13;;;3.00;;
15449;SDS011;7826;49.784;9.934;2023-07-13T02:14:17;4.00;;;2.90;;
15449;SDS011;7826;49.784;9.934;2023-07-13T02:16:43;3.20;;;2.90;;
15449;SDS011;7826;49.784;9.934;2023-07-13T02:19:10;3.00;;;2.80;;
15449;SDS011;7826;49.784;9.934;2023-07-13T02:21:36;3.10;;;2.73;;
15449;SDS011;7826;49.784;9.934;2023-07-13T02:24:03;2.83;;;2.63;;
15449;SDS011;7826;49.784;9.934;2023-07-13T02:26:30;4.77;;;2.90;;
15449;SDS011;7826;49.784;9.934;2023-07-13T02:28:56;4.47;;;3.47;;
15449;SDS011;7826;49.784;9.934;2023-07-13T02:31:23;3.97;;;2.70;;
15449;SDS011;7826;49.784;9.934;2023-07-13T02:33:49;3.03;;;2.70;;
15449;SDS011;7826;49.784;9.934;2023-07-13T02:36:16;3.20;;;2.90;;
15449;SDS011;7826;49.784;9.934;2023-07-13T02:38:44;6.20;;;3.20;;
15449;SDS011;7826;49.784;9.934;2023-07-13T02:41:11;6.77;;;3.10;;
15449;SDS011;7826;49.784;9.934;2023-07-13T02:43:38;3.93;;;3.40;;
15449;SDS011;7826;49.784;9.934;2023-07-13T02:46:05;3.93;;;3.30;;
15449;SDS011;7826;49.784;9.934;2023-07-13T02:48:35;6.00;;;3.27;;
15449;SDS011;7826;49.784;9.934;2023-07-13T02:51:03;4.17;;;3.13;;
15449;SDS011;7826;49.784;9.934;2023-07-13T02:53:30;3.27;;;2.93;;
15449;SDS011;7826;49.784;9.934;2023-07-13T02:55:57;3.83;;;3.20;;
15449;SDS011;7826;49.784;9.934;2023-07-13T02:58:24;4.77;;;3.27;;
15449;SDS011;7826;49.784;9.934;2023-07-13T03:00:50;3.37;;;3.07;;
15449;SDS011;7826;49.784;9.934;2023-07-13T03:03:17;3.07;;;2.87;;
15449;SDS011;7826;49.784;9.934;2023-07-13T03:05:44;4.10;;;3.50;;
15449;SDS011;7826;49.784;9.934;2023-07-13T03:08:16;3.33;;;3.10;;
15449;SDS011;7826;49.784;9.934;2023-07-13T03:10:44;3.67;;;3.30;;
15449;SDS011;7826;49.784;9.934;2023-07-13T03:13:10;3.40;;;3.00;;
15449;SDS011;7826;49.784;9.934;2023-07-13T03:15:37;4.53;;;3.37;;
15449;SDS011;7826;49.784;9.934;2023-07-13T03:18:03;3.40;;;3.10;;
15449;SDS011;7826;49.784;9.934;2023-07-13T03:20:32;3.43;;;3.10;;
15449;SDS011;7826;49.784;9.934;2023-07-13T03:23:01;4.67;;;4.20;;
15449;SDS011;7826;49.784;9.934;2023-07-13T03:25:29;4.23;;;3.53;;
15449;SDS011;7826;49.784;9.934;2023-07-13T03:27:55;6.43;;;3.77;;
15449;SDS011;7826;49.784;9.934;2023-07-13T03:30:21;4.33;;;3.93;;
15449;SDS011;7826;49.784;9.934;2023-07-13T03:32:49;4.60;;;3.30;;
15449;SDS011;7826;49.784;9.934;2023-07-13T03:35:15;4.10;;;3.70;;
15449;SDS011;7826;49.784;9.934;2023-07-13T03:37:42;4.20;;;3.63;;
15449;SDS011;7826;49.784;9.934;2023-07-13T03:40:09;5.03;;;3.67;;
15449;SDS011;7826;49.784;9.934;2023-07-13T03:42:36;4.57;;;3.60;;
15449;SDS011;7826;49.784;9.934;2023-07-13T03:45:03;4.23;;;3.80;;
15449;SDS011;7826;49.784;9.934;2023-07-13T03:47:30;5.30;;;4.07;;
15449;SDS011;7826;49.784;9.934;2023-07-13T03:49:56;4.10;;;3.80;;
15449;SDS011;7826;49.784;9.934;2023-07-13T03:52:23;4.90;;;3.70;;
15449;SDS011;7826;49.784;9.934;2023-07-13T03:54:49;6.00;;;4.20;;
15449;SDS011;7826;49.784;9.934;2023-07-13T03:57:16;4.33;;;3.80;;
15449;SDS011;7826;49.784;9.934;2023-07-13T03:59:42;5.27;;;4.03;;
15449;SDS011;7826;49.784;9.934;2023-07-13T04:02:09;4.77;;;4.00;;
15449;SDS011;7826;49.784;9.934;2023-07-13T04:04:36;4.67;;;3.83;;
15449;SDS011;7826;49.784;9.934;2023-07-13T04:07:06;4.50;;;4.10;;
15449;SDS011;7826;49.784;9.934;2023-07-13T04:09:34;4.03;;;3.63;;
15449;SDS011;7826;49.784;9.934;2023-07-13T04:12:01;4.50;;;4.10;;
15449;SDS011;7826;49.784;9.934;2023-07-13T04:14:29;4.60;;;4.20;;
15449;SDS011;7826;49.784;9.934;2023-07-13T04:16:55;5.23;;;4.50;;
15449;SDS011;7826;49.784;9.934;2023-07-13T04:19:22;6.20;;;4.20;;
15449;SDS011;7826;49.784;9.934;2023-07-13T04:21:49;4.93;;;4.43;;
15449;SDS011;7826;49.784;9.934;2023-07-13T04:24:15;5.73;;;4.00;;
15449;SDS011;7826;49.784;9.934;2023-07-13T04:26:42;5.50;;;4.67;;
15449;SDS011;7826;49.784;9.934;2023-07-13T04:29:08;4.77;;;4.27;;
15449;SDS011;7826;49.784;9.934;2023-07-13T04:31:35;6.27;;;5.10;;
15449;SDS011;7826;49.784;9.934;2023-07-13T04:34:02;5.47;;;4.50;;
15449;SDS011;7826;49.784;9.934;2023-07-13T04:36:28;5.70;;;4.33;;
15449;SDS011;7826;49.784;9.934;2023-07-13T04:38:55;5.60;;;4.53;;
15449;SDS011;7826;49.784;9.934;2023-07-13T04:41:21;5.47;;;4.97;;
15449;SDS011;7826;49.784;9.934;2023-07-13T04:43:48;5.57;;;5.07;;
15449;SDS011;7826;49.784;9.934;2023-07-13T04:46:16;5.23;;;4.57;;
15449;SDS011;7826;49.784;9.934;2023-07-13T04:48:44;5.60;;;4.17;;
15449;SDS011;7826;49.784;9.934;2023-07-13T04:51:11;5.27;;;4.77;;
15449;SDS011;7826;49.784;9.934;2023-07-13T04:53:37;6.03;;;4.90;;
15449;SDS011;7826;49.784;9.934;2023-07-13T04:56:04;5.07;;;4.67;;
15449;SDS011;7826;49.784;9.934;2023-07-13T04:58:31;5.80;;;5.07;;
15449;SDS011;7826;49.784;9.934;2023-07-13T05:01:02;5.47;;;4.50;;
15449;SDS011;7826;49.784;9.934;2023-07-13T05:03:30;4.80;;;4.40;;
15449;SDS011;7826;49.784;9.934;2023-07-13T05:05:57;6.67;;;4.63;;
15449;SDS011;7826;49.784;9.934;2023-07-13T05:08:25;6.30;;;4.30;;
15449;SDS011;7826;49.784;9.934;2023-07-13T05:10:52;7.83;;;4.60;;
15449;SDS011;7826;49.784;9.934;2023-07-13T05:13:19;6.20;;;4.33;;
15449;SDS011;7826;49.784;9.934;2023-07-13T05:15:47;4.53;;;4.13;;
15449;SDS011;7826;49.784;9.934;2023-07-13T05:18:21;5.57;;;4.53;;
15449;SDS011;7826;49.784;9.934;2023-07-13T05:20:54;5.40;;;3.80;;
15449;SDS011;7826;49.784;9.934;2023-07-13T05:23:25;5.13;;;3.77;;
15449;SDS011;7826;49.784;9.934;2023-07-13T05:25:52;5.10;;;3.70;;
15449;SDS011;7826;49.784;9.934;2023-07-13T05:28:18;4.63;;;3.70;;
15449;SDS011;7826;49.784;9.934;2023-07-13T05:30:46;5.03;;;3.40;;
15449;SDS011;7826;49.784;9.934;2023-07-13T05:33:16;5.90;;;3.73;;
15449;SDS011;7826;49.784;9.934;2023-07-13T05:35:43;4.20;;;3.80;;
15449;SDS011;7826;49.784;9.934;2023-07-13T05:38:09;4.80;;;3.47;;
15449;SDS011;7826;49.784;9.934;2023-07-13T05:40:36;4.17;;;3.60;;
15449;SDS011;7826;49.784;9.934;2023-07-13T05:43:03;3.67;;;3.37;;
15449;SDS011;7826;49.784;9.934;2023-07-13T05:45:29;5.73;;;3.63;;
15449;SDS011;7826;49.784;9.934;2023-07-13T05:47:56;4.00;;;3.47;;
15449;SDS011;7826;49.784;9.934;2023-07-13T05:50:22;3.43;;;3.13;;
15449;SDS011;7826;49.784;9.934;2023-07-13T05:52:49;5.93;;;3.70;;
15449;SDS011;7826;49.784;9.934;2023-07-13T05:55:15;3.43;;;3.13;;
15449;SDS011;7826;49.784;9.934;2023-07-13T05:57:42;5.30;;;4.13;;
15449;SDS011;7826;49.784;9.934;2023-07-13T06:00:08;4.70;;;3.40;;
15449;SDS011;7826;49.784;9.934;2023-07-13T06:02:35;5.27;;;3.87;;
15449;SDS011;7826;49.784;9.934;2023-07-13T06:05:02;4.80;;;3.93;;
15449;SDS011;7826;49.784;9.934;2023-07-13T06:07:28;5.47;;;4.23;;
15449;SDS011;7826;49.784;9.934;2023-07-13T06:09:55;4.03;;;3.60;;
15449;SDS011;7826;49.784;9.934;2023-07-13T06:12:22;4.20;;;3.80;;
15449;SDS011;7826;49.784;9.934;2023-07-13T06:14:48;3.87;;;3.50;;
15449;SDS011;7826;49.784;9.934;2023-07-13T06:17:15;4.60;;;3.60;;
15449;SDS011;7826;49.784;9.934;2023-07-13T06:19:41;4.10;;;3.73;;
15449;SDS011;7826;49.784;9.934;2023-07-13T06:22:08;4.10;;;3.67;;
15449;SDS011;7826;49.784;9.934;2023-07-13T06:24:34;3.87;;;3.33;;
15449;SDS011;7826;49.784;9.934;2023-07-13T06:27:01;4.07;;;3.40;;
15449;SDS011;7826;49.784;9.934;2023-07-13T06:29:27;6.53;;;3.20;;
15449;SDS011;7826;49.784;9.934;2023-07-13T06:31:54;4.47;;;2.93;;
15449;SDS011;7826;49.784;9.934;2023-07-13T06:34:20;5.50;;;3.30;;
15449;SDS011;7826;49.784;9.934;2023-07-13T06:36:47;4.77;;;3.30;;
15449;SDS011;7826;49.784;9.934;2023-07-13T06:39:14;4.97;;;3.20;;
15449;SDS011;7826;49.784;9.934;2023-07-13T06:41:40;3.43;;;2.93;;
15449;SDS011;7826;49.784;9.934;2023-07-13T06:44:07;5.00;;;3.23;;
15449;SDS011;7826;49.784;9.934;2023-07-13T06:46:33;4.47;;;2.87;;
15449;SDS011;7826;49.784;9.934;2023-07-13T06:49:00;4.20;;;2.97;;
15449;SDS011;7826;49.784;9.934;2023-07-13T06:51:26;3.90;;;2.67;;
15449;SDS011;7826;49.784;9.934;2023-07-13T06:53:53;3.80;;;2.93;;
15449;SDS011;7826;49.784;9.934;2023-07-13T06:56:21;5.47;;;3.03;;
15449;SDS011;7826;49.784;9.934;2023-07-13T06:58:48;3.17;;;2.73;;
15449;SDS011;7826;49.784;9.934;2023-07-13T07:01:14;3.20;;;2.90;;
15449;SDS011;7826;49.784;9.934;2023-07-13T07:03:41;4.73;;;2.77;;
15449;SDS011;7826;49.784;9.934;2023-07-13T07:06:18;3.33;;;2.60;;
15449;SDS011;7826;49.784;9.934;2023-07-13T07:08:46;3.30;;;2.50;;
15449;SDS011;7826;49.784;9.934;2023-07-13T07:11:13;2.90;;;2.60;;
15449;SDS011;7826;49.784;9.934;2023-07-13T07:13:44;3.37;;;2.50;;
15449;SDS011;7826;49.784;9.934;2023-07-13T07:16:11;3.13;;;2.70;;
15449;SDS011;7826;49.784;9.934;2023-07-13T07:18:38;2.63;;;2.43;;
15449;SDS011;7826;49.784;9.934;2023-07-13T07:21:04;3.33;;;2.17;;
15449;SDS011;7826;49.784;9.934;2023-07-13T07:23:31;3.27;;;2.30;;
15449;SDS011;7826;49.784;9.934;2023-07-13T07:25:57;2.60;;;2.40;;
15449;SDS011;7826;49.784;9.934;2023-07-13T07:28:24;2.80;;;2.20;;
15449;SDS011;7826;49.784;9.934;2023-07-13T07:30:52;2.70;;;2.33;;
15449;SDS011;7826;49.784;9.934;2023-07-13T07:33:20;2.57;;;2.37;;
15449;SDS011;7826;49.784;9.934;2023-07-13T07:35:47;3.83;;;2.20;;
15449;SDS011;7826;49.784;9.934;2023-07-13T07:38:14;2.33;;;2.00;;
15449;SDS011;7826;49.784;9.934;2023-07-13T07:40:43;2.70;;;1.87;;
15449;SDS011;7826;49.784;9.934;2023-07-13T07:43:10;2.77;;;2.33;;
15449;SDS011;7826;49.784;9.934;2023-07-13T07:45:38;5.20;;;2.47;;
15449;SDS011;7826;49.784;9.934;2023-07-13T07:48:05;2.97;;;1.90;;
15449;SDS011;7826;49.784;9.934;2023-07-13T07:50:33;3.70;;;2.30;;
15449;SDS011;7826;49.784;9.934;2023-07-13T07:52:59;2.43;;;2.07;;
15449;SDS011;7826;49.784;9.934;2023-07-13T07:55:27;2.60;;;2.00;;
15449;SDS011;7826;49.784;9.934;2023-07-13T07:57:55;4.33;;;2.30;;
15449;SDS011;7826;49.784;9.934;2023-07-13T08:00:22;2.00;;;1.90;;
15449;SDS011;7826;49.784;9.934;2023-07-13T08:02:49;2.40;;;2.20;;
15449;SDS011;7826;49.784;9.934;2023-07-13T08:05:15;4.13;;;2.00;;
15449;SDS011;7826;49.784;9.934;2023-07-13T08:07:42;3.60;;;2.10;;
15449;SDS011;7826;49.784;9.934;2023-07-13T08:10:08;3.23;;;2.20;;
15449;SDS011;7826;49.784;9.934;2023-07-13T08:12:36;5.13;;;2.47;;
15449;SDS011;7826;49.784;9.934;2023-07-13T08:15:03;4.50;;;2.07;;
15449;SDS011;7826;49.784;9.934;2023-07-13T08:17:31;3.57;;;2.20;;
15449;SDS011;7826;49.784;9.934;2023-07-13T08:19:58;2.27;;;2.13;;
15449;SDS011;7826;49.784;9.934;2023-07-13T08:22:24;4.37;;;2.80;;
15449;SDS011;7826;49.784;9.934;2023-07-13T08:24:50;2.70;;;2.50;;
15449;SDS011;7826;49.784;9.934;2023-07-13T08:27:22;5.07;;;2.50;;
15449;SDS011;7826;49.784;9.934;2023-07-13T08:29:50;3.47;;;2.20;;
15449;SDS011;7826;49.784;9.934;2023-07-13T08:32:17;2.40;;;2.20;;
15449;SDS011;7826;49.784;9.934;2023-07-13T08:34:45;3.43;;;2.47;;
15449;SDS011;7826;49.784;9.934;2023-07-13T08:37:12;3.83;;;2.50;;
15449;SDS011;7826;49.784;9.934;2023-07-13T08:39:38;5.40;;;2.30;;
15449;SDS011;7826;49.784;9.934;2023-07-13T08:42:06;4.37;;;2.60;;
15449;SDS011;7826;49.784;9.934;2023-07-13T08:47:35;3.93;;;2.37;;
15449;SDS011;7826;49.784;9.934;2023-07-13T08:50:05;2.73;;;2.43;;
15449;SDS011;7826;49.784;9.934;2023-07-13T08:52:39;2.80;;;2.00;;
15449;SDS011;7826;49.784;9.934;2023-07-13T08:55:29;5.63;;;2.20;;
15449;SDS011;7826;49.784;9.934;2023-07-13T08:58:07;4.83;;;2.70;;
15449;SDS011;7826;49.784;9.934;2023-07-13T09:03:37;3.37;;;2.20;;
15449;SDS011;7826;49.784;9.934;2023-07-13T09:06:27;3.97;;;1.83;;
15449;SDS011;7826;49.784;9.934;2023-07-13T09:09:04;2.00;;;1.53;;
15449;SDS011;7826;49.784;9.934;2023-07-13T09:17:02;4.17;;;2.60;;
15449;SDS011;7826;49.784;9.934;2023-07-13T09:19:32;3.93;;;2.77;;
15449;SDS011;7826;49.784;9.934;2023-07-13T09:22:02;2.77;;;2.57;;
15449;SDS011;7826;49.784;9.934;2023-07-13T09:27:24;6.07;;;3.47;;
15449;SDS011;7826;49.784;9.934;2023-07-13T09:30:02;5.07;;;3.10;;
15449;SDS011;7826;49.784;9.934;2023-07-13T09:32:45;3.93;;;3.30;;
15449;SDS011;7826;49.784;9.934;2023-07-13T09:35:17;4.47;;;3.10;;
15449;SDS011;7826;49.784;9.934;2023-07-13T09:37:47;3.60;;;2.90;;
15449;SDS011;7826;49.784;9.934;2023-07-13T09:40:23;5.40;;;2.90;;
15449;SDS011;7826;49.784;9.934;2023-07-13T09:42:55;6.03;;;3.00;;
15449;SDS011;7826;49.784;9.934;2023-07-13T09:45:30;4.03;;;3.07;;
15449;SDS011;7826;49.784;9.934;2023-07-13T09:47:59;3.73;;;2.80;;
15449;SDS011;7826;49.784;9.934;2023-07-13T09:50:30;4.13;;;3.33;;
15449;SDS011;7826;49.784;9.934;2023-07-13T09:52:56;16.30;;;3.70;;
15449;SDS011;7826;49.784;9.934;2023-07-13T09:58:14;3.13;;;2.90;;
15449;SDS011;7826;49.784;9.934;2023-07-13T10:03:29;3.37;;;3.07;;
15449;SDS011;7826;49.784;9.934;2023-07-13T10:06:15;4.03;;;2.93;;
15449;SDS011;7826;49.784;9.934;2023-07-13T10:08:44;4.60;;;3.40;;
15449;SDS011;7826;49.784;9.934;2023-07-13T10:11:19;4.33;;;3.40;;
15449;SDS011;7826;49.784;9.934;2023-07-13T10:16:26;7.57;;;3.10;;
15449;SDS011;7826;49.784;9.934;2023-07-13T10:18:59;4.37;;;2.97;;
15449;SDS011;7826;49.784;9.934;2023-07-13T10:21:52;5.03;;;3.10;;
15449;SDS011;7826;49.784;9.934;2023-07-13T10:24:26;3.70;;;3.40;;
15449;SDS011;7826;49.784;9.934;2023-07-13T10:26:57;5.20;;;2.97;;
15449;SDS011;7826;49.784;9.934;2023-07-13T10:29:25;3.13;;;2.90;;
15449;SDS011;7826;49.784;9.934;2023-07-13T10:31:54;10.63;;;3.67;;
15449;SDS011;7826;49.784;9.934;2023-07-13T10:34:23;3.90;;;2.80;;
15449;SDS011;7826;49.784;9.934;2023-07-13T10:36:51;3.73;;;2.70;;
15449;SDS011;7826;49.784;9.934;2023-07-13T10:39:22;4.60;;;2.80;;
15449;SDS011;7826;49.784;9.934;2023-07-13T10:41:55;7.00;;;3.10;;
15449;SDS011;7826;49.784;9.934;2023-07-13T10:44:31;3.07;;;2.87;;
15449;SDS011;7826;49.784;9.934;2023-07-13T10:47:00;5.00;;;3.03;;
15449;SDS011;7826;49.784;9.934;2023-07-13T10:49:33;5.23;;;2.97;;
15449;SDS011;7826;49.784;9.934;2023-07-13T10:52:01;3.13;;;2.80;;
15449;SDS011;7826;49.784;9.934;2023-07-13T10:59:42;3.10;;;2.80;;
15449;SDS011;7826;49.784;9.934;2023-07-13T11:02:35;4.10;;;2.97;;
15449;SDS011;7826;49.784;9.934;2023-07-13T11:05:12;3.30;;;2.63;;
15449;SDS011;7826;49.784;9.934;2023-07-13T11:08:13;3.47;;;2.60;;
15449;SDS011;7826;49.784;9.934;2023-07-13T11:10:50;2.80;;;2.40;;
15449;SDS011;7826;49.784;9.934;2023-07-13T11:21:31;4.33;;;2.40;;
15449;SDS011;7826;49.784;9.934;2023-07-13T11:24:02;3.47;;;2.40;;
15449;SDS011;7826;49.784;9.934;2023-07-13T11:31:51;4.40;;;2.50;;
15449;SDS011;7826;49.784;9.934;2023-07-13T11:34:27;5.80;;;2.57;;
15449;SDS011;7826;49.784;9.934;2023-07-13T11:36:58;4.23;;;2.30;;
15449;SDS011;7826;49.784;9.934;2023-07-13T11:39:30;3.47;;;2.30;;
15449;SDS011;7826;49.784;9.934;2023-07-13T11:42:03;3.23;;;2.43;;
15449;SDS011;7826;49.784;9.934;2023-07-13T11:44:32;3.23;;;2.03;;
15449;SDS011;7826;49.784;9.934;2023-07-13T11:47:07;2.40;;;2.00;;
15449;SDS011;7826;49.784;9.934;2023-07-13T11:49:40;3.53;;;2.20;;
15449;SDS011;7826;49.784;9.934;2023-07-13T11:52:14;3.90;;;2.13;;
15449;SDS011;7826;49.784;9.934;2023-07-13T11:54:48;6.57;;;2.27;;
15449;SDS011;7826;49.784;9.934;2023-07-13T11:57:25;2.80;;;2.07;;
15449;SDS011;7826;49.784;9.934;2023-07-13T12:00:03;3.63;;;1.77;;
15449;SDS011;7826;49.784;9.934;2023-07-13T12:02:38;5.40;;;2.00;;
15449;SDS011;7826;49.784;9.934;2023-07-13T12:05:10;3.30;;;1.90;;
15449;SDS011;7826;49.784;9.934;2023-07-13T12:07:41;2.00;;;1.80;;
15449;SDS011;7826;49.784;9.934;2023-07-13T12:12:36;2.00;;;1.80;;
15449;SDS011;7826;49.784;9.934;2023-07-13T12:15:06;2.30;;;2.10;;
15449;SDS011;7826;49.784;9.934;2023-07-13T12:17:34;3.63;;;2.20;;
15449;SDS011;7826;49.784;9.934;2023-07-13T12:20:03;2.73;;;2.13;;
15449;SDS011;7826;49.784;9.934;2023-07-13T12:22:48;4.77;;;2.20;;
15449;SDS011;7826;49.784;9.934;2023-07-13T12:25:15;2.03;;;1.83;;
15449;SDS011;7826;49.784;9.934;2023-07-13T12:27:46;2.40;;;1.93;;
15449;SDS011;7826;49.784;9.934;2023-07-13T12:30:27;3.93;;;1.77;;
15449;SDS011;7826;49.784;9.934;2023-07-13T12:33:15;2.23;;;2.00;;
15449;SDS011;7826;49.784;9.934;2023-07-13T12:35:47;3.03;;;1.90;;
15449;SDS011;7826;49.784;9.934;2023-07-13T12:38:15;2.30;;;1.90;;
15449;SDS011;7826;49.784;9.934;2023-07-13T12:40:43;2.87;;;2.00;;
15449;SDS011;7826;49.784;9.934;2023-07-13T12:43:12;3.17;;;1.97;;
15449;SDS011;7826;49.784;9.934;2023-07-13T12:45:54;3.43;;;2.13;;
15449;SDS011;7826;49.784;9.934;2023-07-13T12:48:25;3.93;;;1.73;;
15449;SDS011;7826;49.784;9.934;2023-07-13T12:50:51;2.30;;;2.03;;
15449;SDS011;7826;49.784;9.934;2023-07-13T12:53:21;2.50;;;1.80;;
15449;SDS011;7826;49.784;9.934;2023-07-13T12:55:55;2.70;;;1.77;;
15449;SDS011;7826;49.784;9.934;2023-07-13T12:58:26;3.37;;;1.90;;
15449;SDS011;7826;49.784;9.934;2023-07-13T13:00:57;3.70;;;1.87;;
15449;SDS011;7826;49.784;9.934;2023-07-13T13:05:58;1.73;;;1.63;;
15449;SDS011;7826;49.784;9.934;2023-07-13T13:08:26;3.57;;;2.00;;
15449;SDS011;7826;49.784;9.934;2023-07-13T13:10:53;3.40;;;1.90;;
15449;SDS011;7826;49.784;9.934;2023-07-13T13:13:20;2.53;;;2.10;;
15449;SDS011;7826;49.784;9.934;2023-07-13T13:15:46;5.63;;;1.90;;
15449;SDS011;7826;49.784;9.934;2023-07-13T13:18:17;3.30;;;1.90;;
15449;SDS011;7826;49.784;9.934;2023-07-13T13:20:45;2.90;;;1.83;;
15449;SDS011;7826;49.784;9.934;2023-07-13T13:23:16;4.87;;;1.80;;
15449;SDS011;7826;49.784;9.934;2023-07-13T13:25:45;3.97;;;2.00;;
15449;SDS011;7826;49.784;9.934;2023-07-13T13:28:14;3.07;;;1.93;;
15449;SDS011;7826;49.784;9.934;2023-07-13T13:30:42;3.33;;;1.50;;
15449;SDS011;7826;49.784;9.934;2023-07-13T13:33:14;5.30;;;1.70;;
15449;SDS011;7826;49.784;9.934;2023-07-13T13:35:42;2.13;;;1.53;;
15449;SDS011;7826;49.784;9.934;2023-07-13T13:38:10;2.53;;;1.57;;
15449;SDS011;7826;49.784;9.934;2023-07-13T13:40:37;4.07;;;1.63;;
15449;SDS011;7826;49.784;9.934;2023-07-13T13:43:08;2.13;;;1.73;;
15449;SDS011;7826;49.784;9.934;2023-07-13T13:45:45;4.07;;;1.67;;
15449;SDS011;7826;49.784;9.934;2023-07-13T13:48:19;2.97;;;1.47;;
15449;SDS011;7826;49.784;9.934;2023-07-13T13:50:56;3.20;;;1.60;;
15449;SDS011;7826;49.784;9.934;2023-07-13T13:53:23;2.57;;;1.80;;
15449;SDS011;7826;49.784;9.934;2023-07-13T13:55:50;3.57;;;1.63;;
15449;SDS011;7826;49.784;9.934;2023-07-13T13:58:18;2.93;;;1.60;;
15449;SDS011;7826;49.784;9.934;2023-07-13T14:00:45;1.97;;;1.70;;
15449;SDS011;7826;49.784;9.934;2023-07-13T14:03:14;1.67;;;1.50;;
15449;SDS011;7826;49.784;9.934;2023-07-13T14:05:45;2.07;;;1.50;;
15449;SDS011;7826;49.784;9.934;2023-07-13T14:08:16;1.67;;;1.20;;
15449;SDS011;7826;49.784;9.934;2023-07-13T14:10:44;3.93;;;1.40;;
15449;SDS011;7826;49.784;9.934;2023-07-13T14:13:21;1.30;;;1.20;;
15449;SDS011;7826;49.784;9.934;2023-07-13T14:15:53;2.73;;;1.23;;
15449;SDS011;7826;49.784;9.934;2023-07-13T14:18:20;1.50;;;1.27;;
15449;SDS011;7826;49.784;9.934;2023-07-13T14:20:47;1.57;;;1.40;;
15449;SDS011;7826;49.784;9.934;2023-07-13T14:23:15;2.40;;;1.50;;
15449;SDS011;7826;49.784;9.934;2023-07-13T14:25:42;1.57;;;1.43;;
15449;SDS011;7826;49.784;9.934;2023-07-13T14:28:15;2.03;;;1.57;;
15449;SDS011;7826;49.784;9.934;2023-07-13T14:30:44;4.20;;;1.43;;
15449;SDS011;7826;49.784;9.934;2023-07-13T14:33:10;1.50;;;1.27;;
15449;SDS011;7826;49.784;9.934;2023-07-13T14:35:37;4.07;;;1.40;;
15449;SDS011;7826;49.784;9.934;2023-07-13T14:38:04;3.27;;;1.40;;
15449;SDS011;7826;49.784;9.934;2023-07-13T14:40:33;3.03;;;1.30;;
15449;SDS011;7826;49.784;9.934;2023-07-13T14:43:00;2.00;;;1.37;;
15449;SDS011;7826;49.784;9.934;2023-07-13T14:45:27;1.60;;;1.50;;
15449;SDS011;7826;49.784;9.934;2023-07-13T14:47:56;2.07;;;1.30;;
15449;SDS011;7826;49.784;9.934;2023-07-13T14:50:31;1.73;;;1.30;;
15449;SDS011;7826;49.784;9.934;2023-07-13T14:52:58;3.40;;;1.30;;
15449;SDS011;7826;49.784;9.934;2023-07-13T14:55:25;1.83;;;1.40;;
15449;SDS011;7826;49.784;9.934;2023-07-13T14:57:52;1.70;;;1.50;;
15449;SDS011;7826;49.784;9.934;2023-07-13T15:00:19;2.57;;;1.70;;
15449;SDS011;7826;49.784;9.934;2023-07-13T15:02:47;3.37;;;1.57;;
15449;SDS011;7826;49.784;9.934;2023-07-13T15:05:17;1.57;;;1.40;;
15449;SDS011;7826;49.784;9.934;2023-07-13T15:07:47;2.67;;;1.60;;
15449;SDS011;7826;49.784;9.934;2023-07-13T15:12:45;1.30;;;1.20;;
15449;SDS011;7826;49.784;9.934;2023-07-13T15:15:12;2.40;;;1.60;;
15449;SDS011;7826;49.784;9.934;2023-07-13T15:17:45;3.00;;;1.53;;
15449;SDS011;7826;49.784;9.934;2023-07-13T15:22:43;1.93;;;1.60;;
15449;SDS011;7826;49.784;9.934;2023-07-13T15:25:21;1.70;;;1.50;;
15449;SDS011;7826;49.784;9.934;2023-07-13T15:27:50;2.00;;;1.50;;
15449;SDS011;7826;49.784;9.934;2023-07-13T15:30:18;2.90;;;1.27;;
15449;SDS011;7826;49.784;9.934;2023-07-13T15:32:45;1.93;;;1.50;;
15449;SDS011;7826;49.784;9.934;2023-07-13T15:35:17;1.60;;;1.50;;
15449;SDS011;7826;49.784;9.934;2023-07-13T15:37:46;3.20;;;1.70;;
15449;SDS011;7826;49.784;9.934;2023-07-13T15:40:13;2.17;;;1.70;;
15449;SDS011;7826;49.784;9.934;2023-07-13T15:42:40;2.57;;;1.60;;
15449;SDS011;7826;49.784;9.934;2023-07-13T15:45:18;3.47;;;1.40;;
15449;SDS011;7826;49.784;9.934;2023-07-13T15:47:46;3.27;;;1.53;;
15449;SDS011;7826;49.784;9.934;2023-07-13T15:50:23;1.97;;;1.60;;
15449;SDS011;7826;49.784;9.934;2023-07-13T15:52:54;2.60;;;1.60;;
15449;SDS011;7826;49.784;9.934;2023-07-13T15:55:24;2.17;;;1.53;;
15449;SDS011;7826;49.784;9.934;2023-07-13T15:57:51;1.50;;;1.40;;
15449;SDS011;7826;49.784;9.934;2023-07-13T16:00:19;1.70;;;1.60;;
15449;SDS011;7826;49.784;9.934;2023-07-13T16:02:50;1.50;;;1.40;;
15449;SDS011;7826;49.784;9.934;2023-07-13T16:05:18;2.23;;;1.70;;